sensor_id;sensor_type;location;lat;lon;timestamp;temperature;humidity
20881;DHT22;10600;53.096;8.802;2023-03-14T00:00:14;10.70;99.90
20881;DHT22;10600;53.096;8.802;2023-03-14T00:01:18;10.70;99.90
20881;DHT22;10600;53.096;8.802;2023-03-14T00:02:20;10.70;99.90
20881;DHT22;10600;53.096;8.802;2023-03-14T00:03:21;10.80;99.90
20881;DHT22;10600;53.096;8.802;2023-03-14T00:04:21;10.80;99.90
20881;DHT22;10600;53.096;8.802;2023-03-14T00:05:22;10.80;99.90
20881;DHT22;10600;53.096;8.802;2023-03-14T00:06:23;10.90;99.90
20881;DHT22;10600;53.096;8.802;2023-03-14T00:07:23;10.90;99.90
20881;DHT22;10600;53.096;8.802;2023-03-14T00:08:25;10.90;99.90
20881;DHT22;10600;53.096;8.802;2023-03-14T00:09:25;11.00;99.90
20881;DHT22;10600;53.096;8.802;2023-03-14T00:10:26;11.00;99.90
20881;DHT22;10600;53.096;8.802;2023-03-14T00:11:27;11.00;99.90
20881;DHT22;10600;53.096;8.802;2023-03-14T00:12:28;11.00;99.90
20881;DHT22;10600;53.096;8.802;2023-03-14T00:13:28;11.00;99.90
20881;DHT22;10600;53.096;8.802;2023-03-14T00:14:31;11.00;99.90
20881;DHT22;10600;53.096;8.802;2023-03-14T00:15:34;11.00;99.90
20881;DHT22;10600;53.096;8.802;2023-03-14T00:16:35;11.00;99.90
20881;DHT22;10600;53.096;8.802;2023-03-14T00:17:36;11.00;99.90
20881;DHT22;10600;53.096;8.802;2023-03-14T00:18:38;11.00;99.90
20881;DHT22;10600;53.096;8.802;2023-03-14T00:19:39;11.00;99.90
20881;DHT22;10600;53.096;8.802;2023-03-14T00:20:39;11.00;99.90
20881;DHT22;10600;53.096;8.802;2023-03-14T00:21:40;11.00;99.90
20881;DHT22;10600;53.096;8.802;2023-03-14T00:22:41;11.00;99.90
20881;DHT22;10600;53.096;8.802;2023-03-14T00:23:42;11.00;99.90
20881;DHT22;10600;53.096;8.802;2023-03-14T00:24:43;10.90;99.90
20881;DHT22;10600;53.096;8.802;2023-03-14T00:25:43;10.90;99.90
20881;DHT22;10600;53.096;8.802;2023-03-14T00:26:44;10.90;99.90
20881;DHT22;10600;53.096;8.802;2023-03-14T00:27:45;10.90;99.90
20881;DHT22;10600;53.096;8.802;2023-03-14T00:28:45;10.90;99.90
20881;DHT22;10600;53.096;8.802;2023-03-14T00:29:46;10.90;99.90
20881;DHT22;10600;53.096;8.802;2023-03-14T00:30:47;10.90;99.90
20881;DHT22;10600;53.096;8.802;2023-03-14T00:31:48;10.90;99.90
20881;DHT22;10600;53.096;8.802;2023-03-14T00:32:48;10.90;99.90
20881;DHT22;10600;53.096;8.802;2023-03-14T00:33:51;10.90;99.90
20881;DHT22;10600;53.096;8.802;2023-03-14T00:34:52;10.90;99.90
20881;DHT22;10600;53.096;8.802;2023-03-14T00:35:58;10.90;99.90
20881;DHT22;10600;53.096;8.802;2023-03-14T00:36:59;10.90;99.90
20881;DHT22;10600;53.096;8.802;2023-03-14T00:38:00;10.90;99.90
20881;DHT22;10600;53.096;8.802;2023-03-14T00:39:00;10.90;99.90
20881;DHT22;10600;53.096;8.802;2023-03-14T00:40:01;10.90;99.90
20881;DHT22;10600;53.096;8.802;2023-03-14T00:41:10;10.90;99.90
20881;DHT22;10600;53.096;8.802;2023-03-14T00:42:11;11.00;99.90
20881;DHT22;10600;53.096;8.802;2023-03-14T00:43:12;11.00;99.90
20881;DHT22;10600;53.096;8.802;2023-03-14T00:44:13;11.00;99.90
20881;DHT22;10600;53.096;8.802;2023-03-14T00:45:13;11.00;99.90
20881;DHT22;10600;53.096;8.802;2023-03-14T00:46:14;11.00;99.90
20881;DHT22;10600;53.096;8.802;2023-03-14T00:47:15;11.00;99.90
20881;DHT22;10600;53.096;8.802;2023-03-14T00:48:16;11.00;99.90
20881;DHT22;10600;53.096;8.802;2023-03-14T00:49:17;11.00;99.90
20881;DHT22;10600;53.096;8.802;2023-03-14T00:50:18;11.00;99.90
20881;DHT22;10600;53.096;8.802;2023-03-14T00:51:19;11.00;99.90
20881;DHT22;10600;53.096;8.802;2023-03-14T00:52:19;11.00;99.90
20881;DHT22;10600;53.096;8.802;2023-03-14T00:53:21;11.00;99.90
20881;DHT22;10600;53.096;8.802;2023-03-14T00:54:22;11.00;99.90
20881;DHT22;10600;53.096;8.802;2023-03-14T00:55:23;11.00;99.90
20881;DHT22;10600;53.096;8.802;2023-03-14T00:56:24;11.00;99.90
20881;DHT22;10600;53.096;8.802;2023-03-14T00:57:24;10.90;99.90
20881;DHT22;10600;53.096;8.802;2023-03-14T00:58:25;10.90;99.90
20881;DHT22;10600;53.096;8.802;2023-03-14T00:59:25;10.90;99.90
20881;DHT22;10600;53.096;8.802;2023-03-14T01:00:26;10.90;99.90
20881;DHT22;10600;53.096;8.802;2023-03-14T01:01:27;10.80;99.90
20881;DHT22;10600;53.096;8.802;2023-03-14T01:02:28;10.80;99.90
20881;DHT22;10600;53.096;8.802;2023-03-14T01:03:28;10.80;99.90
20881;DHT22;10600;53.096;8.802;2023-03-14T01:04:29;10.80;99.90
20881;DHT22;10600;53.096;8.802;2023-03-14T01:05:31;10.80;99.90
20881;DHT22;10600;53.096;8.802;2023-03-14T01:06:32;10.70;99.90
20881;DHT22;10600;53.096;8.802;2023-03-14T01:07:33;10.70;99.90
20881;DHT22;10600;53.096;8.802;2023-03-14T01:08:33;10.70;99.90
20881;DHT22;10600;53.096;8.802;2023-03-14T01:09:34;10.70;99.90
20881;DHT22;10600;53.096;8.802;2023-03-14T01:10:39;10.70;99.90
20881;DHT22;10600;53.096;8.802;2023-03-14T01:11:40;10.70;99.90
20881;DHT22;10600;53.096;8.802;2023-03-14T01:12:41;10.70;99.90
20881;DHT22;10600;53.096;8.802;2023-03-14T01:13:41;10.70;99.90
20881;DHT22;10600;53.096;8.802;2023-03-14T01:14:42;10.70;99.90
20881;DHT22;10600;53.096;8.802;2023-03-14T01:15:43;10.70;99.90
20881;DHT22;10600;53.096;8.802;2023-03-14T01:16:43;10.60;99.90
20881;DHT22;10600;53.096;8.802;2023-03-14T01:17:44;10.60;99.90
20881;DHT22;10600;53.096;8.802;2023-03-14T01:18:46;10.60;99.90
20881;DHT22;10600;53.096;8.802;2023-03-14T01:19:46;10.60;99.90
20881;DHT22;10600;53.096;8.802;2023-03-14T01:20:47;10.60;99.90
20881;DHT22;10600;53.096;8.802;2023-03-14T01:21:48;10.60;99.90
20881;DHT22;10600;53.096;8.802;2023-03-14T01:22:48;10.60;99.90
20881;DHT22;10600;53.096;8.802;2023-03-14T01:23:50;10.60;99.90
20881;DHT22;10600;53.096;8.802;2023-03-14T01:24:51;10.60;99.90
20881;DHT22;10600;53.096;8.802;2023-03-14T01:25:51;10.60;99.90
20881;DHT22;10600;53.096;8.802;2023-03-14T01:26:52;10.60;99.90
20881;DHT22;10600;53.096;8.802;2023-03-14T01:27:53;10.60;99.90
20881;DHT22;10600;53.096;8.802;2023-03-14T01:28:54;10.60;99.90
20881;DHT22;10600;53.096;8.802;2023-03-14T01:29:55;10.60;99.90
20881;DHT22;10600;53.096;8.802;2023-03-14T01:30:55;10.60;99.90
20881;DHT22;10600;53.096;8.802;2023-03-14T01:31:56;10.60;99.90
20881;DHT22;10600;53.096;8.802;2023-03-14T01:32:57;10.70;99.90
20881;DHT22;10600;53.096;8.802;2023-03-14T01:33:57;10.70;99.90
20881;DHT22;10600;53.096;8.802;2023-03-14T01:34:58;10.70;99.90
20881;DHT22;10600;53.096;8.802;2023-03-14T01:35:59;10.70;99.90
20881;DHT22;10600;53.096;8.802;2023-03-14T01:37:02;10.70;99.90
20881;DHT22;10600;53.096;8.802;2023-03-14T01:38:03;10.70;99.90
20881;DHT22;10600;53.096;8.802;2023-03-14T01:39:03;10.70;99.90
20881;DHT22;10600;53.096;8.802;2023-03-14T01:40:06;10.70;99.90
20881;DHT22;10600;53.096;8.802;2023-03-14T01:41:13;10.70;99.90
20881;DHT22;10600;53.096;8.802;2023-03-14T01:42:14;10.70;99.90
20881;DHT22;10600;53.096;8.802;2023-03-14T01:43:19;10.80;99.90
20881;DHT22;10600;53.096;8.802;2023-03-14T01:44:21;10.80;99.90
20881;DHT22;10600;53.096;8.802;2023-03-14T01:47:00;10.80;99.90
20881;DHT22;10600;53.096;8.802;2023-03-14T01:48:00;10.80;99.90
20881;DHT22;10600;53.096;8.802;2023-03-14T01:49:02;10.80;99.90
20881;DHT22;10600;53.096;8.802;2023-03-14T01:50:08;10.80;99.90
20881;DHT22;10600;53.096;8.802;2023-03-14T01:52:32;10.80;99.90
20881;DHT22;10600;53.096;8.802;2023-03-14T01:53:37;10.80;99.90
20881;DHT22;10600;53.096;8.802;2023-03-14T01:54:50;10.80;99.90
20881;DHT22;10600;53.096;8.802;2023-03-14T01:55:53;10.80;99.90
20881;DHT22;10600;53.096;8.802;2023-03-14T01:57:19;10.80;99.90
20881;DHT22;10600;53.096;8.802;2023-03-14T01:58:21;10.80;99.90
20881;DHT22;10600;53.096;8.802;2023-03-14T01:59:22;10.70;99.90
20881;DHT22;10600;53.096;8.802;2023-03-14T02:00:23;10.70;99.90
20881;DHT22;10600;53.096;8.802;2023-03-14T02:01:24;10.70;99.90
20881;DHT22;10600;53.096;8.802;2023-03-14T02:02:26;10.70;99.90
20881;DHT22;10600;53.096;8.802;2023-03-14T02:03:29;10.70;99.90
20881;DHT22;10600;53.096;8.802;2023-03-14T02:04:33;10.70;99.90
20881;DHT22;10600;53.096;8.802;2023-03-14T02:05:37;10.70;99.90
20881;DHT22;10600;53.096;8.802;2023-03-14T02:08:11;10.70;99.90
20881;DHT22;10600;53.096;8.802;2023-03-14T02:09:14;10.60;99.90
20881;DHT22;10600;53.096;8.802;2023-03-14T02:10:16;10.60;99.90
20881;DHT22;10600;53.096;8.802;2023-03-14T02:11:19;10.60;99.90
20881;DHT22;10600;53.096;8.802;2023-03-14T02:12:20;10.60;99.90
20881;DHT22;10600;53.096;8.802;2023-03-14T02:13:22;10.60;99.90
20881;DHT22;10600;53.096;8.802;2023-03-14T02:14:32;10.60;99.90
20881;DHT22;10600;53.096;8.802;2023-03-14T02:15:34;10.60;99.90
20881;DHT22;10600;53.096;8.802;2023-03-14T02:16:35;10.60;99.90
20881;DHT22;10600;53.096;8.802;2023-03-14T02:17:36;10.60;99.90
20881;DHT22;10600;53.096;8.802;2023-03-14T02:18:37;10.60;99.90
20881;DHT22;10600;53.096;8.802;2023-03-14T02:19:45;10.60;99.90
20881;DHT22;10600;53.096;8.802;2023-03-14T02:20:58;10.60;99.90
20881;DHT22;10600;53.096;8.802;2023-03-14T02:22:08;10.60;99.90
20881;DHT22;10600;53.096;8.802;2023-03-14T02:23:09;10.70;99.90
20881;DHT22;10600;53.096;8.802;2023-03-14T02:26:02;10.70;99.90
20881;DHT22;10600;53.096;8.802;2023-03-14T02:27:13;10.70;99.90
20881;DHT22;10600;53.096;8.802;2023-03-14T02:28:14;10.70;99.90
20881;DHT22;10600;53.096;8.802;2023-03-14T02:29:16;10.70;99.90
20881;DHT22;10600;53.096;8.802;2023-03-14T02:30:23;10.80;99.90
20881;DHT22;10600;53.096;8.802;2023-03-14T02:31:24;10.80;99.90
20881;DHT22;10600;53.096;8.802;2023-03-14T02:32:26;10.80;99.90
20881;DHT22;10600;53.096;8.802;2023-03-14T02:33:27;10.80;99.90
20881;DHT22;10600;53.096;8.802;2023-03-14T02:34:29;10.80;99.90
20881;DHT22;10600;53.096;8.802;2023-03-14T02:36:48;10.90;99.90
20881;DHT22;10600;53.096;8.802;2023-03-14T02:39:10;10.90;99.90
20881;DHT22;10600;53.096;8.802;2023-03-14T02:40:12;10.90;99.90
20881;DHT22;10600;53.096;8.802;2023-03-14T02:41:13;11.00;99.90
20881;DHT22;10600;53.096;8.802;2023-03-14T02:42:14;11.00;99.90
20881;DHT22;10600;53.096;8.802;2023-03-14T02:43:15;11.00;99.90
20881;DHT22;10600;53.096;8.802;2023-03-14T02:44:16;11.00;99.90
20881;DHT22;10600;53.096;8.802;2023-03-14T02:46:20;11.00;99.90
20881;DHT22;10600;53.096;8.802;2023-03-14T02:47:28;11.10;99.90
20881;DHT22;10600;53.096;8.802;2023-03-14T02:48:33;11.10;99.90
20881;DHT22;10600;53.096;8.802;2023-03-14T02:49:35;11.10;99.90
20881;DHT22;10600;53.096;8.802;2023-03-14T02:50:35;11.10;99.90
20881;DHT22;10600;53.096;8.802;2023-03-14T02:51:37;11.10;99.90
20881;DHT22;10600;53.096;8.802;2023-03-14T02:52:38;11.10;99.90
20881;DHT22;10600;53.096;8.802;2023-03-14T02:53:39;11.20;99.90
20881;DHT22;10600;53.096;8.802;2023-03-14T02:54:41;11.20;99.90
20881;DHT22;10600;53.096;8.802;2023-03-14T02:55:45;11.20;99.90
20881;DHT22;10600;53.096;8.802;2023-03-14T02:56:46;11.20;99.90
20881;DHT22;10600;53.096;8.802;2023-03-14T02:57:47;11.20;99.90
20881;DHT22;10600;53.096;8.802;2023-03-14T02:58:47;11.20;99.90
20881;DHT22;10600;53.096;8.802;2023-03-14T02:59:48;11.20;99.90
20881;DHT22;10600;53.096;8.802;2023-03-14T03:00:49;11.20;99.90
20881;DHT22;10600;53.096;8.802;2023-03-14T03:01:49;11.20;99.90
20881;DHT22;10600;53.096;8.802;2023-03-14T03:02:50;11.20;99.90
20881;DHT22;10600;53.096;8.802;2023-03-14T03:03:51;11.30;99.90
20881;DHT22;10600;53.096;8.802;2023-03-14T03:04:51;11.30;99.90
20881;DHT22;10600;53.096;8.802;2023-03-14T03:05:54;11.30;99.90
20881;DHT22;10600;53.096;8.802;2023-03-14T03:06:55;11.30;99.90
20881;DHT22;10600;53.096;8.802;2023-03-14T03:07:55;11.30;99.90
20881;DHT22;10600;53.096;8.802;2023-03-14T03:08:57;11.30;99.90
20881;DHT22;10600;53.096;8.802;2023-03-14T03:09:58;11.30;99.90
20881;DHT22;10600;53.096;8.802;2023-03-14T03:10:59;11.30;99.90
20881;DHT22;10600;53.096;8.802;2023-03-14T03:11:59;11.30;99.90
20881;DHT22;10600;53.096;8.802;2023-03-14T03:13:00;11.40;99.90
20881;DHT22;10600;53.096;8.802;2023-03-14T03:14:01;11.40;99.90
20881;DHT22;10600;53.096;8.802;2023-03-14T03:15:01;11.40;99.90
20881;DHT22;10600;53.096;8.802;2023-03-14T03:16:02;11.40;99.90
20881;DHT22;10600;53.096;8.802;2023-03-14T03:17:04;11.40;99.90
20881;DHT22;10600;53.096;8.802;2023-03-14T03:18:04;11.40;99.90
20881;DHT22;10600;53.096;8.802;2023-03-14T03:19:05;11.40;99.90
20881;DHT22;10600;53.096;8.802;2023-03-14T03:20:06;11.40;99.90
20881;DHT22;10600;53.096;8.802;2023-03-14T03:21:09;11.50;99.90
20881;DHT22;10600;53.096;8.802;2023-03-14T03:22:10;11.50;99.90
20881;DHT22;10600;53.096;8.802;2023-03-14T03:23:11;11.50;99.90
20881;DHT22;10600;53.096;8.802;2023-03-14T03:24:11;11.50;99.90
20881;DHT22;10600;53.096;8.802;2023-03-14T03:25:12;11.50;99.90
20881;DHT22;10600;53.096;8.802;2023-03-14T03:26:13;11.50;99.90
20881;DHT22;10600;53.096;8.802;2023-03-14T03:27:13;11.50;99.90
20881;DHT22;10600;53.096;8.802;2023-03-14T03:28:14;11.50;99.90
20881;DHT22;10600;53.096;8.802;2023-03-14T03:29:14;11.50;99.90
20881;DHT22;10600;53.096;8.802;2023-03-14T03:30:15;11.50;99.90
20881;DHT22;10600;53.096;8.802;2023-03-14T03:31:16;11.50;99.90
20881;DHT22;10600;53.096;8.802;2023-03-14T03:32:17;11.60;99.90
20881;DHT22;10600;53.096;8.802;2023-03-14T03:33:17;11.50;99.90
20881;DHT22;10600;53.096;8.802;2023-03-14T03:34:18;11.60;99.90
20881;DHT22;10600;53.096;8.802;2023-03-14T03:35:18;11.60;99.90
20881;DHT22;10600;53.096;8.802;2023-03-14T03:36:23;11.50;99.90
20881;DHT22;10600;53.096;8.802;2023-03-14T03:37:24;11.60;99.90
20881;DHT22;10600;53.096;8.802;2023-03-14T03:38:25;11.50;99.90
20881;DHT22;10600;53.096;8.802;2023-03-14T03:39:25;11.50;99.90
20881;DHT22;10600;53.096;8.802;2023-03-14T03:40:26;11.50;99.90
20881;DHT22;10600;53.096;8.802;2023-03-14T03:41:27;11.50;99.90
20881;DHT22;10600;53.096;8.802;2023-03-14T03:42:28;11.40;99.90
20881;DHT22;10600;53.096;8.802;2023-03-14T03:43:28;11.40;99.90
20881;DHT22;10600;53.096;8.802;2023-03-14T03:44:29;11.40;99.90
20881;DHT22;10600;53.096;8.802;2023-03-14T03:45:30;11.40;99.90
20881;DHT22;10600;53.096;8.802;2023-03-14T03:46:31;11.40;99.90
20881;DHT22;10600;53.096;8.802;2023-03-14T03:47:31;11.40;99.90
20881;DHT22;10600;53.096;8.802;2023-03-14T03:48:33;11.30;99.90
20881;DHT22;10600;53.096;8.802;2023-03-14T03:49:34;11.30;99.90
20881;DHT22;10600;53.096;8.802;2023-03-14T03:50:34;11.30;99.90
20881;DHT22;10600;53.096;8.802;2023-03-14T03:51:35;11.30;99.90
20881;DHT22;10600;53.096;8.802;2023-03-14T03:52:35;11.20;99.90
20881;DHT22;10600;53.096;8.802;2023-03-14T03:53:36;11.20;99.90
20881;DHT22;10600;53.096;8.802;2023-03-14T03:54:37;11.20;99.90
20881;DHT22;10600;53.096;8.802;2023-03-14T03:55:40;11.20;99.90
20881;DHT22;10600;53.096;8.802;2023-03-14T03:56:40;11.20;99.90
20881;DHT22;10600;53.096;8.802;2023-03-14T03:57:41;11.10;99.90
20881;DHT22;10600;53.096;8.802;2023-03-14T03:58:41;11.10;99.90
20881;DHT22;10600;53.096;8.802;2023-03-14T03:59:42;11.10;99.90
20881;DHT22;10600;53.096;8.802;2023-03-14T04:00:43;11.10;99.90
20881;DHT22;10600;53.096;8.802;2023-03-14T04:01:43;11.10;99.90
20881;DHT22;10600;53.096;8.802;2023-03-14T04:02:44;11.10;99.90
20881;DHT22;10600;53.096;8.802;2023-03-14T04:03:45;11.10;99.90
20881;DHT22;10600;53.096;8.802;2023-03-14T04:04:45;11.10;99.90
20881;DHT22;10600;53.096;8.802;2023-03-14T04:05:46;11.10;99.90
20881;DHT22;10600;53.096;8.802;2023-03-14T04:06:46;11.00;99.90
20881;DHT22;10600;53.096;8.802;2023-03-14T04:07:47;11.10;99.90
20881;DHT22;10600;53.096;8.802;2023-03-14T04:08:48;11.10;99.90
20881;DHT22;10600;53.096;8.802;2023-03-14T04:09:48;11.00;99.90
20881;DHT22;10600;53.096;8.802;2023-03-14T04:10:49;11.00;99.90
20881;DHT22;10600;53.096;8.802;2023-03-14T04:11:50;11.00;99.90
20881;DHT22;10600;53.096;8.802;2023-03-14T04:12:50;11.00;99.90
20881;DHT22;10600;53.096;8.802;2023-03-14T04:13:51;11.00;99.90
20881;DHT22;10600;53.096;8.802;2023-03-14T04:14:52;11.00;99.90
20881;DHT22;10600;53.096;8.802;2023-03-14T04:15:53;11.00;99.90
20881;DHT22;10600;53.096;8.802;2023-03-14T04:16:53;11.00;99.90
20881;DHT22;10600;53.096;8.802;2023-03-14T04:17:58;11.00;99.90
20881;DHT22;10600;53.096;8.802;2023-03-14T04:19:00;11.00;99.90
20881;DHT22;10600;53.096;8.802;2023-03-14T04:20:01;11.00;99.90
20881;DHT22;10600;53.096;8.802;2023-03-14T04:21:01;11.00;99.90
20881;DHT22;10600;53.096;8.802;2023-03-14T04:22:02;11.00;99.90
20881;DHT22;10600;53.096;8.802;2023-03-14T04:23:03;11.00;99.90
20881;DHT22;10600;53.096;8.802;2023-03-14T04:24:03;11.00;99.90
20881;DHT22;10600;53.096;8.802;2023-03-14T04:25:05;11.00;99.90
20881;DHT22;10600;53.096;8.802;2023-03-14T04:26:06;11.00;99.90
20881;DHT22;10600;53.096;8.802;2023-03-14T04:27:07;11.00;99.90
20881;DHT22;10600;53.096;8.802;2023-03-14T04:28:07;11.00;99.90
20881;DHT22;10600;53.096;8.802;2023-03-14T04:29:08;11.00;99.90
20881;DHT22;10600;53.096;8.802;2023-03-14T04:30:09;11.00;99.90
20881;DHT22;10600;53.096;8.802;2023-03-14T04:31:20;11.00;99.90
20881;DHT22;10600;53.096;8.802;2023-03-14T04:32:21;11.00;99.90
20881;DHT22;10600;53.096;8.802;2023-03-14T04:33:22;11.00;99.90
20881;DHT22;10600;53.096;8.802;2023-03-14T04:34:22;11.00;99.90
20881;DHT22;10600;53.096;8.802;2023-03-14T04:35:23;11.00;99.90
20881;DHT22;10600;53.096;8.802;2023-03-14T04:36:24;11.00;99.90
20881;DHT22;10600;53.096;8.802;2023-03-14T04:37:24;11.00;99.90
20881;DHT22;10600;53.096;8.802;2023-03-14T04:38:25;11.00;99.90
20881;DHT22;10600;53.096;8.802;2023-03-14T04:39:26;11.00;99.90
20881;DHT22;10600;53.096;8.802;2023-03-14T04:40:26;11.00;99.90
20881;DHT22;10600;53.096;8.802;2023-03-14T04:41:27;11.00;99.90
20881;DHT22;10600;53.096;8.802;2023-03-14T04:42:28;11.00;99.90
20881;DHT22;10600;53.096;8.802;2023-03-14T04:43:28;11.00;99.90
20881;DHT22;10600;53.096;8.802;2023-03-14T04:44:29;10.90;99.90
20881;DHT22;10600;53.096;8.802;2023-03-14T04:45:30;10.90;99.90
20881;DHT22;10600;53.096;8.802;2023-03-14T04:46:30;10.90;99.90
20881;DHT22;10600;53.096;8.802;2023-03-14T04:47:31;10.90;99.90
20881;DHT22;10600;53.096;8.802;2023-03-14T04:48:32;10.90;99.90
20881;DHT22;10600;53.096;8.802;2023-03-14T04:49:32;10.90;99.90
20881;DHT22;10600;53.096;8.802;2023-03-14T04:50:33;10.90;99.90
20881;DHT22;10600;53.096;8.802;2023-03-14T04:51:34;10.90;99.90
20881;DHT22;10600;53.096;8.802;2023-03-14T04:52:35;10.90;99.90
20881;DHT22;10600;53.096;8.802;2023-03-14T04:53:36;10.90;99.90
20881;DHT22;10600;53.096;8.802;2023-03-14T04:54:37;10.90;99.90
20881;DHT22;10600;53.096;8.802;2023-03-14T04:55:37;10.90;99.90
20881;DHT22;10600;53.096;8.802;2023-03-14T04:56:38;10.90;99.90
20881;DHT22;10600;53.096;8.802;2023-03-14T04:57:39;10.80;99.90
20881;DHT22;10600;53.096;8.802;2023-03-14T04:58:39;10.80;99.90
20881;DHT22;10600;53.096;8.802;2023-03-14T04:59:40;10.90;99.90
20881;DHT22;10600;53.096;8.802;2023-03-14T05:00:41;10.80;99.90
20881;DHT22;10600;53.096;8.802;2023-03-14T05:01:41;10.80;99.90
20881;DHT22;10600;53.096;8.802;2023-03-14T05:02:42;10.80;99.90
20881;DHT22;10600;53.096;8.802;2023-03-14T05:03:42;10.80;99.90
20881;DHT22;10600;53.096;8.802;2023-03-14T05:04:43;10.80;99.90
20881;DHT22;10600;53.096;8.802;2023-03-14T05:05:44;10.90;99.90
20881;DHT22;10600;53.096;8.802;2023-03-14T05:06:44;10.90;99.90
20881;DHT22;10600;53.096;8.802;2023-03-14T05:07:45;10.80;99.90
20881;DHT22;10600;53.096;8.802;2023-03-14T05:08:46;10.80;99.90
20881;DHT22;10600;53.096;8.802;2023-03-14T05:09:46;10.80;99.90
20881;DHT22;10600;53.096;8.802;2023-03-14T05:10:54;10.80;99.90
20881;DHT22;10600;53.096;8.802;2023-03-14T05:11:55;10.80;99.90
20881;DHT22;10600;53.096;8.802;2023-03-14T05:12:56;10.80;99.90
20881;DHT22;10600;53.096;8.802;2023-03-14T05:13:56;10.80;99.90
20881;DHT22;10600;53.096;8.802;2023-03-14T05:14:57;10.80;99.90
20881;DHT22;10600;53.096;8.802;2023-03-14T05:16:08;10.80;99.90
20881;DHT22;10600;53.096;8.802;2023-03-14T05:17:09;10.80;99.90
20881;DHT22;10600;53.096;8.802;2023-03-14T05:18:10;10.70;99.90
20881;DHT22;10600;53.096;8.802;2023-03-14T05:19:11;10.70;99.90
20881;DHT22;10600;53.096;8.802;2023-03-14T05:20:12;10.70;99.90
20881;DHT22;10600;53.096;8.802;2023-03-14T05:21:15;10.70;99.90
20881;DHT22;10600;53.096;8.802;2023-03-14T05:22:16;10.70;99.90
20881;DHT22;10600;53.096;8.802;2023-03-14T05:23:17;10.60;99.90
20881;DHT22;10600;53.096;8.802;2023-03-14T05:24:17;10.60;99.90
20881;DHT22;10600;53.096;8.802;2023-03-14T05:25:18;10.60;99.90
20881;DHT22;10600;53.096;8.802;2023-03-14T05:26:19;10.60;99.90
20881;DHT22;10600;53.096;8.802;2023-03-14T05:27:19;10.60;99.90
20881;DHT22;10600;53.096;8.802;2023-03-14T05:28:20;10.60;99.90
20881;DHT22;10600;53.096;8.802;2023-03-14T05:29:21;10.60;99.90
20881;DHT22;10600;53.096;8.802;2023-03-14T05:30:21;10.60;99.90
20881;DHT22;10600;53.096;8.802;2023-03-14T05:31:22;10.50;99.90
20881;DHT22;10600;53.096;8.802;2023-03-14T05:32:23;10.50;99.90
20881;DHT22;10600;53.096;8.802;2023-03-14T05:33:23;10.50;99.90
20881;DHT22;10600;53.096;8.802;2023-03-14T05:34:24;10.50;99.90
20881;DHT22;10600;53.096;8.802;2023-03-14T05:35:25;10.50;99.90
20881;DHT22;10600;53.096;8.802;2023-03-14T05:36:25;10.50;99.90
20881;DHT22;10600;53.096;8.802;2023-03-14T05:37:26;10.50;99.90
20881;DHT22;10600;53.096;8.802;2023-03-14T05:38:27;10.50;99.90
20881;DHT22;10600;53.096;8.802;2023-03-14T05:39:27;10.40;99.90
20881;DHT22;10600;53.096;8.802;2023-03-14T05:40:28;10.40;99.90
20881;DHT22;10600;53.096;8.802;2023-03-14T05:41:29;10.40;99.90
20881;DHT22;10600;53.096;8.802;2023-03-14T05:42:29;10.40;99.90
20881;DHT22;10600;53.096;8.802;2023-03-14T05:43:30;10.40;99.90
20881;DHT22;10600;53.096;8.802;2023-03-14T05:44:31;10.40;99.90
20881;DHT22;10600;53.096;8.802;2023-03-14T05:45:31;10.40;99.90
20881;DHT22;10600;53.096;8.802;2023-03-14T05:46:32;10.30;99.90
20881;DHT22;10600;53.096;8.802;2023-03-14T05:47:33;10.30;99.90
20881;DHT22;10600;53.096;8.802;2023-03-14T05:48:33;10.30;99.90
20881;DHT22;10600;53.096;8.802;2023-03-14T05:49:34;10.30;99.90
20881;DHT22;10600;53.096;8.802;2023-03-14T05:50:34;10.30;99.90
20881;DHT22;10600;53.096;8.802;2023-03-14T05:51:35;10.30;99.90
20881;DHT22;10600;53.096;8.802;2023-03-14T05:52:36;10.30;99.90
20881;DHT22;10600;53.096;8.802;2023-03-14T05:53:37;10.30;99.90
20881;DHT22;10600;53.096;8.802;2023-03-14T05:54:37;10.30;99.90
20881;DHT22;10600;53.096;8.802;2023-03-14T05:55:39;10.30;99.90
20881;DHT22;10600;53.096;8.802;2023-03-14T05:56:39;10.30;99.90
20881;DHT22;10600;53.096;8.802;2023-03-14T05:57:40;10.30;99.90
20881;DHT22;10600;53.096;8.802;2023-03-14T05:58:41;10.30;99.90
20881;DHT22;10600;53.096;8.802;2023-03-14T05:59:41;10.30;99.90
20881;DHT22;10600;53.096;8.802;2023-03-14T06:00:42;10.30;99.90
20881;DHT22;10600;53.096;8.802;2023-03-14T06:01:43;10.30;99.90
20881;DHT22;10600;53.096;8.802;2023-03-14T06:02:43;10.40;99.90
20881;DHT22;10600;53.096;8.802;2023-03-14T06:03:44;10.40;99.90
20881;DHT22;10600;53.096;8.802;2023-03-14T06:04:44;10.40;99.90
20881;DHT22;10600;53.096;8.802;2023-03-14T06:05:45;10.40;99.90
20881;DHT22;10600;53.096;8.802;2023-03-14T06:06:46;10.40;99.90
20881;DHT22;10600;53.096;8.802;2023-03-14T06:07:46;10.40;99.90
20881;DHT22;10600;53.096;8.802;2023-03-14T06:08:47;10.40;99.90
20881;DHT22;10600;53.096;8.802;2023-03-14T06:09:48;10.40;99.90
20881;DHT22;10600;53.096;8.802;2023-03-14T06:10:48;10.50;99.90
20881;DHT22;10600;53.096;8.802;2023-03-14T06:11:49;10.50;99.90
20881;DHT22;10600;53.096;8.802;2023-03-14T06:12:50;10.50;99.90
20881;DHT22;10600;53.096;8.802;2023-03-14T06:13:51;10.60;99.90
20881;DHT22;10600;53.096;8.802;2023-03-14T06:14:52;10.60;99.90
20881;DHT22;10600;53.096;8.802;2023-03-14T06:15:52;10.60;99.90
20881;DHT22;10600;53.096;8.802;2023-03-14T06:16:53;10.60;99.90
20881;DHT22;10600;53.096;8.802;2023-03-14T06:17:55;10.60;99.90
20881;DHT22;10600;53.096;8.802;2023-03-14T06:18:56;10.60;99.90
20881;DHT22;10600;53.096;8.802;2023-03-14T06:19:56;10.70;99.90
20881;DHT22;10600;53.096;8.802;2023-03-14T06:20:57;10.70;99.90
20881;DHT22;10600;53.096;8.802;2023-03-14T06:21:58;10.70;99.90
20881;DHT22;10600;53.096;8.802;2023-03-14T06:22:59;10.70;99.90
20881;DHT22;10600;53.096;8.802;2023-03-14T06:23:59;10.70;99.90
20881;DHT22;10600;53.096;8.802;2023-03-14T06:25:00;10.70;99.90
20881;DHT22;10600;53.096;8.802;2023-03-14T06:26:00;10.70;99.90
20881;DHT22;10600;53.096;8.802;2023-03-14T06:27:01;10.70;99.90
20881;DHT22;10600;53.096;8.802;2023-03-14T06:28:03;10.70;99.90
20881;DHT22;10600;53.096;8.802;2023-03-14T06:29:04;10.70;99.90
20881;DHT22;10600;53.096;8.802;2023-03-14T06:30:05;10.70;99.90
20881;DHT22;10600;53.096;8.802;2023-03-14T06:31:06;10.80;99.90
20881;DHT22;10600;53.096;8.802;2023-03-14T06:32:07;10.80;99.90
20881;DHT22;10600;53.096;8.802;2023-03-14T06:33:08;10.80;99.90
20881;DHT22;10600;53.096;8.802;2023-03-14T06:34:08;10.80;99.90
20881;DHT22;10600;53.096;8.802;2023-03-14T06:35:09;10.80;99.90
20881;DHT22;10600;53.096;8.802;2023-03-14T06:36:10;10.80;99.90
20881;DHT22;10600;53.096;8.802;2023-03-14T06:37:10;10.80;99.90